Terminal Aerodrome Forecast
Issued by NWS Sterling, VA

Current Version | Previous Version | Graphics & Text | Print | Product List | Glossary On
Versions: 1 2 3 4 5 6 7 8 9 10 11 12 13 14 15 16 17 18
584
FTUS41 KLWX 270527
TAFMRB
TAF
KMRB 270527Z 2706/2806 VRB03KT P6SM BKN100
     FM280200 VRB03KT P6SM FEW060 SCT100=

USA.gov is the U.S. government's official web portal to all federal, state and local government web resources and services.